createdAt,value
2019-03-03T00:04:47.013Z,99759.62
2019-03-03T00:09:50.480Z,99758.23
2019-03-03T00:14:53.937Z,99750.52
2019-03-03T00:19:57.393Z,99750.09
2019-03-03T00:25:00.853Z,99755.45
2019-03-03T00:30:06.788Z,99747.14
2019-03-03T00:35:10.321Z,99750.34
2019-03-03T00:40:24.651Z,99742.37
2019-03-03T00:45:32.136Z,99745.75
2019-03-03T00:50:42.908Z,99748.70
2019-03-03T00:55:48.005Z,99739.00
2019-03-03T01:00:55.900Z,99734.84
2019-03-03T01:06:09.691Z,99731.00
2019-03-03T01:11:17.811Z,99721.75
2019-03-03T01:16:32.060Z,99721.30
2019-03-03T01:21:37.156Z,99719.77
2019-03-03T01:26:40.616Z,99716.39
2019-03-03T01:31:44.068Z,99720.55
2019-03-03T01:36:47.523Z,99711.45
2019-03-03T01:41:50.980Z,99714.22
2019-03-03T01:46:54.435Z,99711.27
2019-03-03T01:51:57.887Z,99704.52
2019-03-03T01:57:01.344Z,99709.00
2019-03-03T02:02:05.040Z,99693.42
2019-03-03T02:07:08.672Z,99698.97
2019-03-03T02:12:12.128Z,99700.67
2019-03-03T02:17:15.583Z,99699.29
2019-03-03T02:22:19.036Z,99704.05
2019-03-03T02:27:22.490Z,99699.11
2019-03-03T02:32:25.947Z,99700.95
2019-03-03T02:37:29.408Z,99692.03
2019-03-03T02:42:32.868Z,99691.25
2019-03-03T02:47:36.489Z,99688.48
2019-03-03T02:52:39.941Z,99690.65
2019-03-03T02:57:43.397Z,99688.48
2019-03-03T03:02:48.507Z,99680.77
2019-03-03T03:07:56.521Z,99674.61
2019-03-03T03:13:07.097Z,99679.55
2019-03-03T03:18:17.904Z,99682.48
2019-03-03T03:23:28.735Z,99682.48
2019-03-03T03:28:42.973Z,99679.88
2019-03-03T03:33:50.957Z,99682.48
2019-03-03T03:38:58.588Z,99676.93
2019-03-03T03:44:03.688Z,99680.34
2019-03-03T03:49:08.786Z,99670.00
2019-03-03T03:54:13.961Z,99665.83
2019-03-03T03:59:19.035Z,99660.29
2019-03-03T04:04:27.221Z,99657.37
2019-03-03T04:09:38.325Z,99650.77
2019-03-03T04:14:43.492Z,99649.20
2019-03-03T04:19:51.546Z,99651.36
2019-03-03T04:25:08.845Z,99642.44
2019-03-03T04:30:26.009Z,99635.33
2019-03-03T04:35:36.957Z,99627.80
2019-03-03T04:40:42.067Z,99620.72
2019-03-03T04:45:49.855Z,99617.77
2019-03-03T04:50:54.950Z,99613.00
2019-03-03T04:56:03.000Z,99611.44
2019-03-03T05:01:08.095Z,99603.13
2019-03-03T05:06:16.165Z,99605.72
2019-03-03T05:11:53.134Z,99584.75
2019-03-03T05:16:58.239Z,99584.14
2019-03-03T05:22:01.711Z,99588.30
2019-03-03T05:27:05.185Z,99583.53
2019-03-03T05:32:08.662Z,99582.32
2019-03-03T05:37:12.136Z,99576.77
2019-03-03T05:42:15.609Z,99567.85
2019-03-03T05:47:19.087Z,99562.91
2019-03-03T05:52:22.560Z,99562.91
2019-03-03T05:57:26.034Z,99555.98
2019-03-03T06:02:29.504Z,99550.26
2019-03-03T06:07:32.976Z,99550.26
2019-03-03T06:12:36.447Z,99548.70
2019-03-03T06:17:39.919Z,99534.83
2019-03-03T06:22:43.398Z,99533.45
2019-03-03T06:27:46.868Z,99542.98
2019-03-03T06:32:50.336Z,99522.78
2019-03-03T06:37:53.808Z,99522.01
2019-03-03T06:42:57.281Z,99531.71
2019-03-03T06:48:00.759Z,99528.94
2019-03-03T06:53:04.224Z,99527.12
2019-03-03T06:58:07.696Z,99538.39
2019-03-03T07:03:11.176Z,99529.46
2019-03-03T07:08:14.649Z,99534.40
2019-03-03T07:13:18.125Z,99531.62
2019-03-03T07:18:21.602Z,99531.02
2019-03-03T07:23:25.077Z,99532.41
2019-03-03T07:28:28.550Z,99544.28
2019-03-03T07:33:32.609Z,99550.75
2019-03-03T07:38:36.078Z,99539.66
2019-03-03T07:43:39.553Z,99549.36
2019-03-03T07:48:43.024Z,99540.44
2019-03-03T07:53:46.492Z,99532.73
2019-03-03T07:58:49.967Z,99534.29
2019-03-03T08:03:53.436Z,99527.04
2019-03-03T08:08:56.912Z,99530.02
2019-03-03T08:14:00.447Z,99530.61
2019-03-03T08:19:03.922Z,99528.20
2019-03-03T08:24:07.393Z,99534.20
2019-03-03T08:29:10.864Z,99529.50
2019-03-03T08:34:14.316Z,99521.53
2019-03-03T08:39:17.778Z,99521.10
2019-03-03T08:44:22.517Z,99524.48
2019-03-03T08:49:27.622Z,99521.88
2019-03-03T08:54:32.736Z,99519.72
2019-03-03T08:59:46.549Z,99509.84
2019-03-03T09:04:51.649Z,99510.80
2019-03-03T09:10:05.722Z,99515.56
2019-03-03T09:15:14.632Z,99512.18
2019-03-03T09:20:31.666Z,99514.48
2019-03-03T09:25:45.596Z,99516.83
2019-03-03T09:30:53.647Z,99518.22
2019-03-03T09:36:10.763Z,99512.84
2019-03-03T09:41:18.791Z,99503.31
2019-03-03T09:46:40.483Z,99493.36
2019-03-03T09:51:51.534Z,99502.89
2019-03-03T09:56:56.623Z,99498.73
2019-03-03T10:02:01.725Z,99498.44
2019-03-03T10:07:09.314Z,99485.47
2019-03-03T10:12:14.413Z,99494.88
2019-03-03T10:17:19.508Z,99495.49
2019-03-03T10:22:33.014Z,99487.03
2019-03-03T10:27:56.219Z,99484.26
2019-03-03T10:33:01.328Z,99486.68
2019-03-03T10:38:06.510Z,99497.77
2019-03-03T10:43:20.839Z,99496.38
2019-03-03T10:48:28.391Z,99490.12
2019-03-03T10:53:33.499Z,99488.06
2019-03-03T10:58:47.108Z,99488.67
2019-03-03T11:03:52.222Z,99498.73
2019-03-03T11:09:12.354Z,99494.05
2019-03-03T11:14:17.454Z,99500.72
2019-03-03T11:19:22.557Z,99487.03
2019-03-03T11:24:36.448Z,99468.55
2019-03-03T11:29:44.551Z,99469.33
2019-03-03T11:34:58.463Z,99463.95
2019-03-03T11:40:03.580Z,99465.34
2019-03-03T11:45:11.137Z,99463.34
2019-03-03T11:50:28.104Z,99461.18
2019-03-03T11:55:35.616Z,99452.86
2019-03-03T12:00:46.737Z,99440.73
2019-03-03T12:05:54.840Z,99446.50
2019-03-03T12:10:59.934Z,99450.37
2019-03-03T12:16:05.095Z,99444.27
2019-03-03T12:21:18.923Z,99443.92
2019-03-03T12:26:24.014Z,99437.89
2019-03-03T12:31:34.746Z,99440.49
2019-03-03T12:36:54.139Z,99437.11
2019-03-03T12:42:08.017Z,99433.38
2019-03-03T12:47:31.106Z,99432.77
2019-03-03T12:52:42.305Z,99429.05
2019-03-03T12:57:59.371Z,99423.67
2019-03-03T13:03:04.473Z,99434.05
2019-03-03T13:08:15.682Z,99414.31
2019-03-03T13:13:35.837Z,99424.38
2019-03-03T13:18:50.027Z,99410.89
2019-03-03T13:34:22.264Z,99407.89
2019-03-03T13:39:43.854Z,99400.05
2019-03-03T13:44:47.306Z,99390.52
2019-03-03T13:49:50.765Z,99384.09
2019-03-03T14:04:55.511Z,99368.09
2019-03-03T14:09:58.962Z,99374.41
2019-03-03T14:15:02.426Z,99374.72
2019-03-03T14:20:09.068Z,99362.16
2019-03-03T14:25:12.767Z,99347.58
2019-03-03T14:30:25.089Z,99349.30
2019-03-03T14:35:28.981Z,99341.69
2019-03-03T14:40:32.436Z,99336.17
2019-03-03T14:45:35.893Z,99333.39
2019-03-03T14:50:39.520Z,99324.77
2019-03-03T14:55:42.982Z,99323.52
2019-03-03T15:00:46.504Z,99323.64
2019-03-03T15:05:50.112Z,99321.48
2019-03-03T15:10:53.592Z,99315.42
2019-03-03T15:15:57.018Z,99316.20
2019-03-03T15:21:00.541Z,99317.31
2019-03-03T15:26:04.173Z,99311.27
2019-03-03T15:31:07.796Z,99308.66
2019-03-03T15:36:11.254Z,99299.08
2019-03-03T15:41:14.800Z,99294.75
2019-03-03T15:46:18.267Z,99300.91
2019-03-03T15:51:21.712Z,99298.73
2019-03-03T15:56:25.170Z,99293.80
2019-03-03T16:01:28.629Z,99294.23
2019-03-03T16:06:32.089Z,99290.38
2019-03-03T16:11:35.538Z,99285.74
2019-03-03T16:16:38.996Z,99280.80
2019-03-03T16:21:42.458Z,99276.64
2019-03-03T16:26:45.906Z,99266.63
2019-03-03T16:31:49.368Z,99261.08
2019-03-03T16:36:52.919Z,99252.52
2019-03-03T16:41:56.378Z,99250.55
2019-03-03T16:46:59.837Z,99242.12
2019-03-03T16:52:03.315Z,99244.59
2019-03-03T16:57:06.782Z,99239.33
2019-03-03T17:02:10.236Z,99233.97
2019-03-03T17:07:13.689Z,99210.10
2019-03-03T17:12:17.145Z,99209.80
2019-03-03T17:17:20.603Z,99189.19
2019-03-03T17:22:24.061Z,99190.61
2019-03-03T17:27:27.553Z,99199.88
2019-03-03T17:32:31.134Z,99198.23
2019-03-03T17:42:44.872Z,99213.88
2019-03-03T17:47:48.787Z,99214.70
2019-03-03T17:52:52.258Z,99222.25
2019-03-03T17:57:55.743Z,99224.25
2019-03-03T18:02:59.203Z,99214.53
2019-03-03T18:08:02.678Z,99217.66
2019-03-03T18:13:06.154Z,99213.20
2019-03-03T18:18:09.625Z,99209.44
2019-03-03T18:23:13.097Z,99194.58
2019-03-03T18:28:16.618Z,99189.75
2019-03-03T18:33:20.083Z,99185.90
2019-03-03T18:38:23.544Z,99183.23
2019-03-03T18:43:27.015Z,99181.69
2019-03-03T18:48:30.484Z,99176.88
2019-03-03T18:53:33.953Z,99178.72
2019-03-03T18:58:37.425Z,99165.13
2019-03-03T19:03:40.876Z,99145.07
2019-03-03T19:08:44.539Z,99151.10
2019-03-03T19:13:48.007Z,99135.50
2019-03-03T19:18:51.487Z,99134.56
2019-03-03T19:23:54.967Z,99123.46
2019-03-03T19:28:58.436Z,99130.84
2019-03-03T19:34:01.913Z,99119.44
2019-03-03T19:39:06.630Z,99105.23
2019-03-03T19:44:11.348Z,99094.25
2019-03-03T19:49:14.962Z,99087.63
2019-03-03T19:54:18.496Z,99084.68
2019-03-03T19:59:21.966Z,99091.45
2019-03-03T20:04:25.421Z,99092.56
2019-03-03T20:09:28.889Z,99086.67
2019-03-03T20:14:32.362Z,99083.73
2019-03-03T20:19:35.816Z,99067.25
2019-03-03T20:24:39.273Z,99052.15
2019-03-03T20:29:42.728Z,99032.39
2019-03-03T20:34:46.183Z,99035.00
2019-03-03T20:39:49.635Z,99036.84
2019-03-03T20:44:53.097Z,99040.95
2019-03-03T20:49:56.553Z,99034.30
2019-03-03T20:55:00.038Z,99036.47
2019-03-03T21:00:07.040Z,99032.00
2019-03-03T21:05:10.679Z,99026.13
2019-03-03T21:10:16.934Z,99019.64
2019-03-03T21:15:20.423Z,98994.34
2019-03-03T21:20:24.422Z,98994.81
2019-03-03T21:25:27.888Z,98983.55
2019-03-03T21:30:31.366Z,98964.70
2019-03-03T21:35:34.843Z,98963.80
2019-03-03T21:40:38.323Z,98956.09
2019-03-03T21:45:41.793Z,98946.06
2019-03-03T21:50:45.269Z,98936.95
2019-03-03T21:55:48.735Z,98929.86
2019-03-03T22:00:52.212Z,98923.70
2019-03-03T22:05:55.684Z,98921.41
2019-03-03T22:10:59.154Z,98898.44
2019-03-03T22:16:02.626Z,98898.44
2019-03-03T22:21:06.096Z,98886.56
2019-03-03T22:26:09.572Z,98889.34
2019-03-03T22:31:13.039Z,98895.34
2019-03-03T22:36:16.519Z,98899.50
2019-03-03T22:41:19.987Z,98893.17
2019-03-03T22:46:23.461Z,98898.56
2019-03-03T22:51:26.934Z,98889.63
2019-03-03T22:56:30.414Z,98887.63
2019-03-03T23:01:34.328Z,98881.92
2019-03-03T23:06:43.848Z,98874.98
2019-03-03T23:11:59.369Z,98869.44
2019-03-03T23:17:14.989Z,98874.98
2019-03-03T23:22:36.783Z,98872.05
2019-03-03T23:27:40.241Z,98867.88
2019-03-03T23:32:43.709Z,98866.34
2019-03-03T23:37:47.151Z,98858.79
2019-03-03T23:42:50.609Z,98830.28
2019-03-03T23:47:54.069Z,98835.98
2019-03-03T23:52:57.525Z,98817.80
2019-03-03T23:58:02.092Z,98825.50
